Etusivu
METAR-TAF:

METAR-TAF

Lentoasemat :

High Level, Alberta, Kanada

Leveyspiiri: 58-37N, Pituuspiiri: 117-10W, korkeus merenpinnasta: 338 m

Tämänhetkinen sää

Tämä raportti tehtiin 1 tunti ja 20 minuuttia sitten, kello 16.00 UTC
tyyntä
Lämpötila -4°C
Kosteus 74%
Ilmanpaine 1025 hPa
Näkyvyys: 24.1 km
Muutamia pilviä 26000 ft:n korkeudessa

METAR: CYOJ 211600Z 00000KT 15SM FEW260 M04/M08 A3028 RMK CI1 CI TR SLP280

Aika: 11:20 (17:20 UTC)

Sääennuste

Tämä raportti tehtiin 4 tuntia ja 42 minuuttia sitten, kello 12.38 UTC
Ennuste voimassa 21. päivästä klo 13 UTC - 22. päivään klo 01 UTC
Tuuli kn pohjoisesta
Näkyvyys: 10 km
selkeää
Tulossa
21. päivästä klo 16 UTC - 21. päivään klo 18 UTC
Tuuli 5 kn etelästä/kaakosta

TAF: CYOJ 211238Z 2113/2201 00000KT P6SM SKC BECMG 2116/2118 15005KT RMK FCST BASED ON AUTO OBS. NXT FCST BY 211900Z

Säähavainnot ja -ennusteet yli 4000 lentoasemalta (METAR- ja TAF-raportit).

Käytössä olevat sääasemat on merkitty karttaan keltaisilla ja punaisilla pisteillä.

Aseta hiiri pisteen päälle nähdäksesi sääaseman nimen.

Klikkaa sitten nähdäksesi säähavainnot ja -ennusteet.

Kartan vaihtaminen: klikkaa mustalla rastilla varustettuja vihreitä pisteitä, niin voit zoomata sisään; viivalla varustettua vihreää pistettä, niin voit zoomata ulos tai vihreitä nuolia, niin pääset viereisille kartoille.


METAR-TAF: